Time;durP1;ratioP1;P1;durP2;ratioP2;P2;SDS_P1;SDS_P2;PMS_P1;PMS_P2;Temp;Humidity;BMP_temperature;BMP_pressure;BME280_temperature;BME280_humidity;BME280_pressure;Samples;Min_cycle;Max_cycle;Signal;HPM_P1;HPM_P2
2024/03/20 00:01:44;;;;;;;9.25;4.15;;;;;;;13.17;59.03;101196.50;5033795;28;20124;-64
2024/03/20 00:04:09;;;;;;;8.80;3.80;;;;;;;13.25;58.84;101193.56;5049540;28;20029;-65
2024/03/20 00:06:35;;;;;;;7.80;3.95;;;;;;;13.28;58.95;101197.47;5035872;28;20486;-65
2024/03/20 00:09:01;;;;;;;13.18;4.68;;;;;;;13.11;59.27;101189.81;5042670;28;20049;-65
2024/03/20 00:11:27;;;;;;;7.85;4.15;;;;;;;13.13;59.22;101187.53;5039642;28;20493;-66
2024/03/20 00:13:52;;;;;;;8.93;3.97;;;;;;;13.13;59.07;101182.91;5036139;28;20044;-65
2024/03/20 00:16:18;;;;;;;7.43;3.67;;;;;;;13.13;59.49;101180.22;5050173;28;20470;-67
2024/03/20 00:18:43;;;;;;;16.15;4.55;;;;;;;13.11;58.95;101173.59;5035914;28;20033;-65
2024/03/20 00:21:09;;;;;;;9.98;4.10;;;;;;;13.21;58.79;101173.00;5049384;28;20056;-65
2024/03/20 00:23:34;;;;;;;7.82;3.67;;;;;;;13.18;59.17;101173.75;5030758;28;20411;-65
2024/03/20 00:26:00;;;;;;;8.63;3.88;;;;;;;13.17;59.11;101172.94;5056769;28;20029;-64
2024/03/20 00:28:26;;;;;;;5.28;3.10;;;;;;;13.10;nan;101172.03;5031930;28;20552;-64
2024/03/20 00:30:52;;;;;;;6.25;3.58;;;;;;;13.01;59.33;101171.44;5021564;28;20066;-64
2024/03/20 00:33:17;;;;;;;14.18;4.15;;;;;;;13.07;59.54;101170.03;5057566;28;20513;-64
2024/03/20 00:35:43;;;;;;;10.23;3.80;;;;;;;13.05;59.95;101164.19;5038986;28;20436;-65
2024/03/20 00:38:08;;;;;;;9.77;3.70;;;;;;;12.99;59.88;101168.34;5039287;28;20041;-65
2024/03/20 00:40:34;;;;;;;9.30;3.65;;;;;;;13.03;59.97;101161.03;5053407;28;20108;-65
2024/03/20 00:42:59;;;;;;;7.25;3.38;;;;;;;13.07;59.45;101167.34;5027554;28;20041;-66
2024/03/20 00:45:26;;;;;;;10.82;4.60;;;;;;;13.07;60.00;101162.72;5038744;28;20037;-66
2024/03/20 00:47:52;;;;;;;10.13;4.57;;;;;;;13.04;59.66;101166.16;5040328;28;20029;-66
2024/03/20 00:50:17;;;;;;;7.90;3.38;;;;;;;13.07;59.79;101168.13;5054118;28;20036;-66
2024/03/20 00:52:43;;;;;;;9.88;4.38;;;;;;;13.06;59.47;101171.97;5033161;28;20037;-66
2024/03/20 00:55:09;;;;;;;8.10;3.55;;;;;;;13.08;59.33;101166.22;5035967;28;20025;-66
2024/03/20 00:57:36;;;;;;;7.25;3.47;;;;;;;13.06;59.81;101163.09;5038190;28;20036;-66
2024/03/20 01:00:01;;;;;;;7.88;3.85;;;;;;;13.03;59.88;101161.03;5047831;28;20024;-66
2024/03/20 01:02:27;;;;;;;12.65;4.20;;;;;;;12.98;60.08;101156.72;5049918;28;20075;-63
2024/03/20 01:04:52;;;;;;;13.43;4.10;;;;;;;12.96;60.18;101160.94;5029381;28;20029;-63
2024/03/20 01:07:18;;;;;;;7.18;3.58;;;;;;;12.98;60.33;101158.66;5030991;28;20091;-63
2024/03/20 01:09:43;;;;;;;9.13;4.13;;;;;;;12.96;60.01;101158.22;5046605;28;20029;-65
2024/03/20 01:12:09;;;;;;;7.97;3.72;;;;;;;12.97;60.28;101149.00;5066316;28;20032;-65
2024/03/20 01:14:34;;;;;;;14.38;4.97;;;;;;;12.97;60.11;101149.00;5051682;28;20036;-65
2024/03/20 01:17:00;;;;;;;9.55;4.30;;;;;;;13.03;60.37;101156.47;5035282;28;20031;-65
2024/03/20 01:19:26;;;;;;;9.85;3.83;;;;;;;12.94;60.30;101158.59;5038714;28;20044;-65
2024/03/20 01:21:52;;;;;;;6.93;3.20;;;;;;;13.00;60.64;101162.56;5050507;28;20086;-64
2024/03/20 01:24:17;;;;;;;10.20;3.85;;;;;;;12.96;60.45;101161.72;5047020;28;20033;-64
2024/03/20 01:26:43;;;;;;;5.85;2.72;;;;;;;12.99;60.09;101152.13;5041979;28;20398;-64
2024/03/20 01:29:09;;;;;;;7.03;3.72;;;;;;;12.97;60.28;101154.41;5038502;28;20509;-65
2024/03/20 01:31:34;;;;;;;10.23;4.18;;;;;;;12.97;60.49;101152.44;5033138;28;20091;-65
2024/03/20 01:34:00;;;;;;;6.80;3.50;;;;;;;12.92;60.36;101155.47;5018022;28;20037;-65
2024/03/20 01:36:25;;;;;;;7.90;3.75;;;;;;;12.84;60.86;101150.25;5027422;28;20048;-65
2024/03/20 01:38:51;;;;;;;9.82;4.25;;;;;;;12.84;61.16;101144.84;5070794;28;20033;-63
2024/03/20 01:41:16;;;;;;;9.25;4.07;;;;;;;12.91;60.75;101153.13;5033342;28;20055;-64
2024/03/20 01:43:51;;;;;;;8.65;3.72;;;;;;;12.90;60.81;101146.13;5016993;28;20116;-64
2024/03/20 01:46:26;;;;;;;13.48;4.28;;;;;;;12.96;60.54;101152.81;5039161;28;20164;-66
2024/03/20 01:48:53;;;;;;;9.10;4.57;;;;;;;12.98;60.51;101153.25;5058033;28;20029;-65
2024/03/20 01:51:19;;;;;;;9.27;4.13;;;;;;;13.07;60.24;101148.41;5049129;28;20029;-64
2024/03/20 01:53:44;;;;;;;9.52;3.88;;;;;;;13.03;60.50;101156.47;5041916;28;20037;-65
2024/03/20 01:56:10;;;;;;;9.63;4.45;;;;;;;12.99;60.85;101152.88;5041676;28;20021;-65
2024/03/20 01:58:36;;;;;;;7.47;4.05;;;;;;;12.95;60.36;101153.97;5030989;28;20067;-64
2024/03/20 02:01:01;;;;;;;9.68;4.68;;;;;;;12.93;60.55;101151.59;5049837;28;20437;-64
2024/03/20 02:03:27;;;;;;;8.82;4.13;;;;;;;13.02;60.36;101137.88;5036615;28;20033;-64
2024/03/20 02:05:52;;;;;;;7.60;4.00;;;;;;;12.93;60.71;101145.44;5054466;28;20047;-65
2024/03/20 02:08:18;;;;;;;7.63;4.07;;;;;;;12.93;60.72;101150.84;5036679;28;20409;-65
2024/03/20 02:10:43;;;;;;;8.93;4.38;;;;;;;12.98;61.30;101155.94;5028644;28;20114;-64
2024/03/20 02:13:09;;;;;;;12.80;4.28;;;;;;;12.99;60.83;101150.16;5032987;28;20029;-65
2024/03/20 02:15:34;;;;;;;10.15;4.57;;;;;;;12.99;61.67;101152.13;5037668;28;20490;-64
2024/03/20 02:18:01;;;;;;;8.90;3.95;;;;;;;13.00;61.53;101165.25;5044540;28;20457;-64
2024/03/20 02:20:26;;;;;;;8.05;3.95;;;;;;;13.04;62.26;101162.66;5044114;28;20026;-65
2024/03/20 02:22:52;;;;;;;8.38;4.03;;;;;;;13.07;62.49;101170.03;5035927;28;20033;-65
2024/03/20 02:25:17;;;;;;;11.07;4.85;;;;;;;13.04;63.42;101163.44;5026565;28;20120;-64
2024/03/20 02:27:43;;;;;;;10.07;4.18;;;;;;;13.03;64.71;101155.63;5054559;28;20566;-65
2024/03/20 02:30:10;;;;;;;8.82;4.35;;;;;;;12.98;64.73;101151.31;5034121;28;20033;-65
2024/03/20 02:32:40;;;;;;;7.40;3.95;;;;;;;13.00;64.96;101145.56;5040016;28;20044;-65
2024/03/20 02:35:07;;;;;;;12.55;4.53;;;;;;;13.04;65.10;101141.03;5041294;28;20044;-65
2024/03/20 02:37:32;;;;;;;11.63;4.70;;;;;;;13.03;65.31;101137.53;5045147;28;20033;-65
2024/03/20 02:39:58;;;;;;;8.55;4.15;;;;;;;13.01;65.56;101141.69;5035237;28;20075;-65
2024/03/20 02:42:24;;;;;;;8.63;4.22;;;;;;;12.98;65.98;101142.41;5055289;28;20127;-66
2024/03/20 02:44:51;;;;;;;14.38;4.35;;;;;;;13.01;66.61;101145.19;5038183;28;20033;-64
2024/03/20 02:47:17;;;;;;;9.02;3.90;;;;;;;13.00;66.65;101143.63;5054157;28;20075;-65
2024/03/20 02:49:43;;;;;;;12.25;4.55;;;;;;;12.95;65.85;101148.56;5037329;28;20034;-65
2024/03/20 02:52:09;;;;;;;9.30;4.85;;;;;;;12.94;66.40;101141.56;5050537;28;20070;-64
2024/03/20 02:54:35;;;;;;;10.40;3.92;;;;;;;12.89;67.29;101133.78;5038936;28;20021;-65
2024/03/20 02:57:00;;;;;;;11.52;4.57;;;;;;;12.91;67.55;101134.19;5069052;28;20155;-65
2024/03/20 02:59:26;;;;;;;12.07;5.30;;;;;;;12.92;67.65;101131.13;5031671;28;20021;-65
2024/03/20 03:01:52;;;;;;;11.63;5.05;;;;;;;12.95;67.34;101135.81;5041704;28;20025;-64
2024/03/20 03:04:17;;;;;;;5.82;3.25;;;;;;;12.90;67.62;101129.91;5020070;28;20033;-65
2024/03/20 03:06:43;;;;;;;9.35;4.45;;;;;;;12.97;66.19;101119.25;5024071;28;20041;-65
2024/03/20 03:09:08;;;;;;;9.27;4.60;;;;;;;12.92;66.83;101116.81;5049304;28;20033;-64
2024/03/20 03:11:35;;;;;;;10.98;4.53;;;;;;;12.94;66.11;101125.34;5042851;28;20037;-64
2024/03/20 03:14:01;;;;;;;9.05;3.78;;;;;;;12.92;66.75;101123.00;5042011;28;20029;-64
2024/03/20 03:16:26;;;;;;;10.95;4.40;;;;;;;12.94;66.61;101125.34;5043772;28;20455;-65
2024/03/20 03:18:52;;;;;;;9.02;3.60;;;;;;;12.91;66.67;101129.53;5040977;28;20099;-64
2024/03/20 03:21:17;;;;;;;11.45;4.35;;;;;;;12.90;65.65;101116.41;5057798;28;20029;-64
2024/03/20 03:23:43;;;;;;;12.23;4.57;;;;;;;12.81;66.94;101124.75;5040606;28;20048;-64
2024/03/20 03:26:08;;;;;;;9.77;4.30;;;;;;;12.80;67.33;101125.06;5036733;28;20032;-64
2024/03/20 03:28:34;;;;;;;8.02;3.60;;;;;;;12.83;66.74;101124.38;5031380;28;20568;-65
2024/03/20 03:31:00;;;;;;;14.73;4.95;;;;;;;12.83;66.37;101117.06;5066138;28;20441;-65
2024/03/20 03:33:25;;;;;;;9.93;3.83;;;;;;;12.85;66.86;101122.09;5034041;28;20029;-65
2024/03/20 03:35:52;;;;;;;14.07;5.07;;;;;;;12.80;67.92;101115.06;5047926;28;20405;-65
2024/03/20 03:38:17;;;;;;;7.13;3.15;;;;;;;12.81;68.04;101115.84;5047227;28;20033;-65
2024/03/20 03:40:43;;;;;;;10.90;4.80;;;;;;;12.80;68.89;101119.69;5038580;28;20419;-64
2024/03/20 03:43:08;;;;;;;9.18;4.95;;;;;;;12.84;69.12;101120.53;5052885;28;20405;-64
2024/03/20 03:45:34;;;;;;;7.82;4.13;;;;;;;12.91;67.75;101117.97;5032914;28;20025;-64
2024/03/20 03:47:59;;;;;;;8.00;4.20;;;;;;;12.81;68.15;101110.44;5039384;28;20486;-64
2024/03/20 03:50:25;;;;;;;8.38;4.15;;;;;;;12.80;68.20;101120.47;5050308;28;20505;-64
2024/03/20 03:52:50;;;;;;;7.70;4.28;;;;;;;12.77;67.83;101109.59;5035360;28;20029;-63
2024/03/20 03:55:16;;;;;;;11.90;4.40;;;;;;;12.74;67.93;101110.31;5018593;28;20561;-66
2024/03/20 03:57:41;;;;;;;10.43;4.70;;;;;;;12.63;68.82;101112.81;5067224;28;20021;-64
2024/03/20 04:00:10;;;;;;;8.55;4.32;;;;;;;12.58;68.08;101113.09;5055510;28;20583;-64
2024/03/20 04:02:36;;;;;;;8.05;4.20;;;;;;;12.58;68.41;101121.97;5035961;28;20083;-64
2024/03/20 04:05:01;;;;;;;11.77;4.40;;;;;;;12.57;68.29;101115.03;5055749;28;20049;-65
2024/03/20 04:07:27;;;;;;;8.30;3.85;;;;;;;12.60;68.01;101122.41;5050640;28;20068;-64
2024/03/20 04:09:52;;;;;;;10.55;3.97;;;;;;;12.67;67.95;101121.75;5058675;28;20032;-65
2024/03/20 04:12:18;;;;;;;8.80;4.45;;;;;;;12.64;68.54;101125.94;5035855;28;20063;-63
2024/03/20 04:14:45;;;;;;;9.13;3.97;;;;;;;12.62;68.95;101120.13;5039479;28;20037;-63
2024/03/20 04:17:10;;;;;;;8.27;4.13;;;;;;;12.64;68.74;101125.94;5035973;28;20094;-65
2024/03/20 04:19:36;;;;;;;8.65;4.15;;;;;;;12.75;67.22;101130.78;5013473;28;20021;-65
2024/03/20 04:22:02;;;;;;;11.70;4.55;;;;;;;12.65;68.54;101122.13;5032263;28;20033;-65
2024/03/20 04:24:28;;;;;;;9.57;4.10;;;;;;;12.70;68.00;101121.03;5031324;28;20025;-64
2024/03/20 04:26:54;;;;;;;8.88;4.53;;;;;;;12.67;67.90;101127.97;5051427;28;20087;-65
2024/03/20 04:29:20;;;;;;;12.55;4.38;;;;;;;12.64;68.67;101125.94;5045865;28;20033;-64
2024/03/20 04:31:46;;;;;;;11.25;4.78;;;;;;;12.61;68.97;101123.97;5012566;28;20033;-65
2024/03/20 04:34:11;;;;;;;12.75;5.07;;;;;;;12.62;69.17;101125.53;5045909;28;20025;-65
2024/03/20 04:36:37;;;;;;;11.23;4.35;;;;;;;12.65;69.75;101124.03;5029498;28;20037;-65
2024/03/20 04:39:02;;;;;;;10.63;4.40;;;;;;;12.66;69.75;101120.19;5031276;28;20446;-66
2024/03/20 04:41:28;;;;;;;10.52;4.57;;;;;;;12.66;70.25;101126.38;5043712;28;20063;-65
2024/03/20 04:43:53;;;;;;;17.50;4.95;;;;;;;12.70;68.84;101124.53;5031167;28;20022;-64
2024/03/20 04:46:19;;;;;;;10.02;4.85;;;;;;;12.68;68.63;101117.91;5046144;28;20061;-65
2024/03/20 04:48:45;;;;;;;13.98;5.38;;;;;;;12.70;68.06;101113.72;5027476;28;20068;-64
2024/03/20 04:51:10;;;;;;;14.35;4.93;;;;;;;12.75;67.86;101125.38;5031937;28;20026;-64
2024/03/20 04:53:37;;;;;;;11.25;4.43;;;;;;;12.67;67.15;101122.56;5045329;28;20037;-65
2024/03/20 04:56:02;;;;;;;11.77;4.80;;;;;;;12.63;67.97;101124.41;5032091;28;20041;-64
2024/03/20 04:58:28;;;;;;;8.48;4.43;;;;;;;12.64;68.11;101117.06;5031225;28;20458;-64
2024/03/20 05:00:53;;;;;;;9.75;4.50;;;;;;;12.66;67.60;101117.47;5040455;28;20030;-64
2024/03/20 05:03:19;;;;;;;11.35;4.20;;;;;;;12.66;67.65;101115.56;5028006;28;20034;-64
2024/03/20 05:05:44;;;;;;;7.95;4.05;;;;;;;12.61;68.55;101121.28;5029994;28;20553;-65
2024/03/20 05:08:10;;;;;;;11.77;5.07;;;;;;;12.57;69.04;101128.53;5063102;28;20104;-64
2024/03/20 05:10:35;;;;;;;13.13;4.50;;;;;;;12.59;69.08;101133.56;5030207;28;20029;-64
2024/03/20 05:13:01;;;;;;;9.63;4.72;;;;;;;12.62;69.01;101130.16;5032416;28;20028;-65
2024/03/20 05:15:26;;;;;;;12.65;5.00;;;;;;;12.64;68.74;101139.47;5028091;28;20568;-65
2024/03/20 05:17:52;;;;;;;14.25;5.65;;;;;;;12.67;68.06;101130.66;5045254;28;20028;-64
2024/03/20 05:20:19;;;;;;;9.07;3.80;;;;;;;12.70;68.04;101124.53;5012036;28;20048;-65
2024/03/20 05:22:45;;;;;;;15.73;5.15;;;;;;;12.74;68.25;101135.41;5029724;28;20021;-66
2024/03/20 05:25:10;;;;;;;11.32;5.07;;;;;;;12.80;67.18;101135.88;5043604;28;20034;-65
2024/03/20 05:27:35;;;;;;;8.82;4.32;;;;;;;12.80;67.45;101133.19;5037334;28;20029;-64
2024/03/20 05:30:02;;;;;;;9.77;4.55;;;;;;;12.81;66.92;101138.25;5019397;28;20033;-65
2024/03/20 05:32:27;;;;;;;11.07;5.05;;;;;;;12.74;67.54;101145.47;5044214;28;20027;-65
2024/03/20 05:34:53;;;;;;;10.88;4.63;;;;;;;12.70;68.52;101148.84;5030747;28;20025;-65
2024/03/20 05:37:19;;;;;;;14.63;4.43;;;;;;;12.72;68.88;101140.38;5018878;28;20021;-64
2024/03/20 05:39:44;;;;;;;8.75;4.07;;;;;;;12.75;68.50;101142.38;5029959;28;20029;-64
2024/03/20 05:42:10;;;;;;;10.88;4.75;;;;;;;12.77;70.06;101144.72;5024920;28;20025;-65
2024/03/20 05:44:36;;;;;;;9.43;4.25;;;;;;;12.75;69.37;101138.91;5030461;28;20057;-64
2024/03/20 05:47:02;;;;;;;12.02;5.10;;;;;;;12.73;70.68;101151.97;5035356;28;20486;-64
2024/03/20 05:49:27;;;;;;;16.00;4.75;;;;;;;12.69;73.04;101154.63;5027139;28;20034;-65
2024/03/20 05:51:53;;;;;;;11.25;4.47;;;;;;;12.67;74.19;101146.88;5029199;28;20044;-64
2024/03/20 05:54:19;;;;;;;8.10;4.05;;;;;;;12.70;75.00;101154.25;5029273;28;20029;-64
2024/03/20 05:56:44;;;;;;;12.63;4.43;;;;;;;12.74;76.03;101156.25;5043578;28;20388;-65
2024/03/20 05:59:12;;;;;;;11.07;4.45;;;;;;;12.69;77.05;101146.50;5045982;28;20041;-64
2024/03/20 06:01:38;;;;;;;12.55;5.00;;;;;;;12.58;76.20;101149.00;5043476;28;20037;-65
2024/03/20 06:04:04;;;;;;;11.20;5.15;;;;;;;12.59;76.11;101139.75;5035481;28;20067;-64
2024/03/20 06:06:30;;;;;;;10.98;5.18;;;;;;;12.50;76.88;101146.53;5034373;28;20037;-65
2024/03/20 06:08:56;;;;;;;12.05;4.60;;;;;;;12.51;78.13;101145.38;5031884;28;20033;-65
2024/03/20 06:11:22;;;;;;;13.98;5.78;;;;;;;12.49;78.44;101143.03;5032056;28;20112;-65
2024/03/20 06:13:53;;;;;;;9.68;4.82;;;;;;;12.48;78.72;101149.59;5038129;28;20042;-63
2024/03/20 06:16:19;;;;;;;15.65;5.25;;;;;;;12.53;78.69;101153.91;5053471;28;20506;-63
2024/03/20 06:18:45;;;;;;;11.25;4.75;;;;;;;12.47;78.91;101148.00;5018644;28;20045;-64
2024/03/20 06:21:10;;;;;;;12.15;5.05;;;;;;;12.47;78.99;101153.41;5028033;28;20044;-63
2024/03/20 06:23:36;;;;;;;13.05;4.63;;;;;;;12.51;79.28;101148.84;5032110;28;20034;-64
2024/03/20 06:26:02;;;;;;;10.35;4.70;;;;;;;12.46;79.81;101159.16;5032840;28;20116;-64
2024/03/20 06:28:27;;;;;;;8.77;4.85;;;;;;;12.44;80.67;101156.03;5047928;28;20117;-64
2024/03/20 06:30:53;;;;;;;9.55;4.28;;;;;;;12.48;80.43;101162.31;5019332;28;20033;-64
2024/03/20 06:33:20;;;;;;;10.85;5.03;;;;;;;12.49;79.73;101166.56;5030258;28;20406;-63
2024/03/20 06:35:47;;;;;;;9.20;4.63;;;;;;;12.50;80.43;101160.78;5032135;28;20490;-64
2024/03/20 06:38:14;;;;;;;9.70;4.97;;;;;;;12.51;80.39;101162.38;5063393;28;20039;-64
2024/03/20 06:40:44;;;;;;;14.57;5.03;;;;;;;12.51;80.35;101169.69;5028272;28;20033;-64
2024/03/20 06:43:10;;;;;;;10.93;5.03;;;;;;;12.56;80.90;101169.41;5033617;28;20106;-66
2024/03/20 06:45:40;;;;;;;11.68;4.85;;;;;;;12.62;80.62;101173.38;5034911;28;20479;-64
2024/03/20 06:48:06;;;;;;;10.30;5.03;;;;;;;12.63;80.82;101181.16;5047006;28;20414;-66
2024/03/20 06:50:32;;;;;;;12.98;5.40;;;;;;;12.57;81.24;101181.78;5014640;28;20045;-64
2024/03/20 06:53:00;;;;;;;16.15;5.45;;;;;;;12.59;81.57;101182.19;5045599;28;20034;-63
2024/03/20 06:55:26;;;;;;;11.40;5.18;;;;;;;12.61;81.27;101188.81;5033120;28;20156;-64
2024/03/20 06:57:52;;;;;;;9.68;4.07;;;;;;;12.69;80.45;101187.84;5035015;28;20613;-65
2024/03/20 07:00:18;;;;;;;12.25;4.93;;;;;;;12.61;79.89;101177.22;5035979;28;20064;-65
2024/03/20 07:02:48;;;;;;;9.90;4.38;;;;;;;12.52;81.36;101180.13;5033478;28;20482;-64
2024/03/20 07:05:15;;;;;;;16.25;5.72;;;;;;;12.53;81.92;101184.41;5036229;28;20041;-65
2024/03/20 07:07:43;;;;;;;11.02;4.82;;;;;;;12.58;82.28;101184.13;5045045;28;20120;-65
2024/03/20 07:10:10;;;;;;;13.40;5.35;;;;;;;12.61;82.36;101183.44;5050944;28;20033;-65
2024/03/20 07:12:36;;;;;;;12.45;4.82;;;;;;;12.59;82.37;101191.09;5027540;28;20092;-63
2024/03/20 07:15:09;;;;;;;9.70;5.15;;;;;;;12.57;83.38;101187.97;5039744;28;20017;-65
2024/03/20 07:17:39;;;;;;;10.25;4.63;;;;;;;12.59;84.08;101184.91;5032982;28;20053;-65
2024/03/20 07:20:06;;;;;;;12.13;4.85;;;;;;;12.64;83.93;101193.50;5009942;28;20034;-64
2024/03/20 07:22:38;;;;;;;12.57;5.63;;;;;;;12.67;83.98;101181.22;5030958;28;20029;-65
2024/03/20 07:25:07;;;;;;;14.65;5.82;;;;;;;12.74;83.64;101186.00;5054006;28;20029;-64
2024/03/20 07:27:34;;;;;;;12.07;5.35;;;;;;;12.78;83.91;101187.59;5033645;28;20132;-64
2024/03/20 07:29:59;;;;;;;13.15;5.30;;;;;;;12.74;83.00;101186.75;5034929;28;20040;-64
2024/03/20 07:32:25;;;;;;;10.52;4.90;;;;;;;12.75;83.28;101187.53;5046361;28;20037;-65
2024/03/20 07:34:50;;;;;;;15.60;6.20;;;;;;;12.81;83.09;101192.31;5032152;28;20041;-66
2024/03/20 07:37:16;;;;;;;12.88;5.18;;;;;;;12.77;83.15;101193.38;5033294;28;20034;-65
2024/03/20 07:39:41;;;;;;;11.57;5.10;;;;;;;12.72;83.25;101185.56;5023930;28;20036;-66
2024/03/20 07:42:08;;;;;;;10.50;5.05;;;;;;;12.66;84.42;101196.63;5038272;28;20164;-65
2024/03/20 07:44:34;;;;;;;14.02;5.32;;;;;;;12.69;84.73;101190.53;5039875;28;20053;-65
2024/03/20 07:47:00;;;;;;;13.35;5.85;;;;;;;12.70;85.13;101189.38;5033023;28;20087;-64
2024/03/20 07:49:26;;;;;;;12.30;5.25;;;;;;;12.81;84.58;101192.31;5034194;28;20044;-64
2024/03/20 07:51:52;;;;;;;16.60;6.38;;;;;;;12.76;84.39;101186.38;5031211;28;20463;-64
2024/03/20 07:54:24;;;;;;;14.18;5.55;;;;;;;12.75;84.73;101179.44;5032978;28;20109;-65
2024/03/20 07:56:50;;;;;;;;;;;;;;;12.75;85.92;101187.53;5031931;28;20137;-65
2024/03/20 07:59:16;;;;;;;11.35;4.88;;;;;;;12.80;85.89;101188.03;5031736;28;19919;-65
2024/03/20 08:01:41;;;;;;;8.40;4.75;;;;;;;12.87;86.85;101195.50;5034217;28;20033;-66
2024/03/20 08:04:06;;;;;;;14.02;6.63;;;;;;;12.96;86.51;101202.25;5045327;28;20520;-65
2024/03/20 08:06:32;;;;;;;16.90;5.50;;;;;;;13.00;86.33;101208.53;5032390;28;20049;-64
2024/03/20 08:08:58;;;;;;;13.80;5.15;;;;;;;13.05;85.68;101204.75;5032929;28;20467;-65
2024/03/20 08:11:24;;;;;;;15.80;6.05;;;;;;;13.10;85.59;101221.50;5031602;28;20120;-65
2024/03/20 08:13:49;;;;;;;10.32;5.38;;;;;;;13.19;85.51;101216.66;5032461;28;20112;-66
2024/03/20 08:16:14;;;;;;;14.10;5.45;;;;;;;13.24;85.58;101226.41;5030415;28;20057;-64
2024/03/20 08:18:40;;;;;;;15.27;5.97;;;;;;;13.30;86.06;101223.03;5031595;28;20041;-65
2024/03/20 08:21:05;;;;;;;12.35;5.53;;;;;;;13.37;85.02;101216.97;5029044;28;20025;-64
2024/03/20 08:23:31;;;;;;;17.20;6.55;;;;;;;13.44;84.60;101233.31;5014494;28;20371;-64
2024/03/20 08:25:57;;;;;;;13.90;5.80;;;;;;;13.54;84.35;101227.31;5031735;28;20564;-64
2024/03/20 08:28:23;;;;;;;15.73;6.65;;;;;;;13.66;84.39;101231.78;5028900;28;20033;-64
2024/03/20 08:30:50;;;;;;;14.70;6.05;;;;;;;13.82;82.69;101225.09;5031572;28;20529;-65
2024/03/20 08:33:16;;;;;;;16.77;6.82;;;;;;;13.79;82.38;101225.81;5032738;28;20029;-64
2024/03/20 08:35:42;;;;;;;18.17;6.65;;;;;;;13.80;82.59;101237.44;5039714;28;20565;-65
2024/03/20 08:38:07;;;;;;;13.27;6.20;;;;;;;13.81;82.48;101220.81;5039236;28;20159;-65
2024/03/20 08:40:33;;;;;;;15.35;5.20;;;;;;;13.82;82.61;101227.78;5036153;28;20086;-64
2024/03/20 08:42:58;;;;;;;14.65;6.40;;;;;;;13.84;81.40;101224.75;5032067;28;20457;-65
2024/03/20 08:45:25;;;;;;;15.05;5.80;;;;;;;13.84;80.94;101232.88;5030407;28;20025;-65
2024/03/20 08:47:51;;;;;;;16.98;6.68;;;;;;;13.84;81.67;101230.16;5033482;28;20037;-65
2024/03/20 08:50:16;;;;;;;22.70;6.38;;;;;;;13.87;82.25;101232.91;5026941;28;20090;-65
2024/03/20 08:52:42;;;;;;;12.48;6.00;;;;;;;13.96;81.96;101228.03;5029500;28;20555;-64
2024/03/20 08:55:08;;;;;;;19.20;6.25;;;;;;;14.04;81.78;101226.22;5043793;28;20103;-65
2024/03/20 08:57:33;;;;;;;18.40;7.38;;;;;;;14.04;82.31;101227.00;5031853;28;20037;-65
2024/03/20 09:00:01;;;;;;;12.82;5.97;;;;;;;14.08;82.16;101221.63;5014741;28;20490;-65
2024/03/20 09:02:26;;;;;;;15.85;6.95;;;;;;;14.12;81.30;101222.47;5032284;28;20046;-65
2024/03/20 09:04:52;;;;;;;14.75;6.28;;;;;;;14.07;81.98;101220.84;5028234;28;20048;-64
2024/03/20 09:07:17;;;;;;;19.38;7.03;;;;;;;14.13;81.96;101229.47;5028022;28;20033;-65
2024/03/20 09:09:43;;;;;;;17.55;6.90;;;;;;;14.17;81.64;101217.53;5034313;28;20410;-64
2024/03/20 09:12:08;;;;;;;20.15;6.35;;;;;;;14.30;81.06;101224.31;5036590;28;20041;-64
2024/03/20 09:14:34;;;;;;;15.30;6.43;;;;;;;14.36;81.02;101220.16;5032718;28;20457;-64
2024/03/20 09:16:59;;;;;;;18.73;7.47;;;;;;;14.50;80.41;101221.50;5037712;28;20032;-65
2024/03/20 09:19:25;;;;;;;14.20;6.60;;;;;;;14.60;80.92;101231.69;5030757;28;20033;-66
2024/03/20 09:21:51;;;;;;;17.50;6.55;;;;;;;14.64;80.64;101229.81;5045768;28;20086;-64
2024/03/20 09:24:19;;;;;;;18.23;7.35;;;;;;;14.68;80.28;101223.28;5045338;28;20033;-65
2024/03/20 09:26:45;;;;;;;14.02;5.75;;;;;;;14.70;79.79;101215.56;5024114;28;20048;-65
2024/03/20 09:29:11;;;;;;;26.73;7.10;;;;;;;14.75;79.86;101217.19;5040693;28;20037;-65
2024/03/20 09:31:37;;;;;;;16.92;7.25;;;;;;;14.86;80.06;101220.81;5032046;28;20156;-65
2024/03/20 09:34:03;;;;;;;12.88;7.15;;;;;;;15.02;79.70;101224.88;5031808;28;20397;-65
2024/03/20 09:36:29;;;;;;;21.58;7.85;;;;;;;15.15;79.29;101219.97;5031683;28;20029;-65
2024/03/20 09:38:55;;;;;;;19.13;8.18;;;;;;;15.25;79.29;101220.06;5050129;28;20029;-65
2024/03/20 09:41:22;;;;;;;23.33;8.07;;;;;;;15.43;79.35;101228.44;5030984;28;20490;-65
2024/03/20 09:43:52;;;;;;;20.50;7.97;;;;;;;15.58;78.33;101215.78;5031798;28;20452;-65
2024/03/20 09:46:19;;;;;;;25.70;8.52;;;;;;;15.76;77.83;101201.19;5030769;28;20484;-64
2024/03/20 09:48:52;;;;;;;24.92;9.80;;;;;;;15.91;75.93;101213.72;5033760;28;20033;-65
2024/03/20 09:51:19;;;;;;;19.85;8.50;;;;;;;15.85;75.55;101214.47;5028550;28;20515;-65
2024/03/20 09:53:52;;;;;;;23.48;8.77;;;;;;;15.96;75.92;101209.88;5030880;28;20087;-66
2024/03/20 09:56:20;;;;;;;23.42;9.13;;;;;;;16.15;75.92;101213.13;5031887;28;20037;-66
2024/03/20 09:58:47;;;;;;;22.27;9.15;;;;;;;16.35;74.77;101224.53;5041175;28;20526;-66
2024/03/20 10:01:17;;;;;;;22.20;8.57;;;;;;;16.54;75.27;101227.00;5030015;28;20494;-66
2024/03/20 10:03:46;;;;;;;18.27;8.25;;;;;;;16.72;73.94;101221.66;5051231;28;20067;-66
2024/03/20 10:06:11;;;;;;;17.08;7.75;;;;;;;16.80;73.25;101215.84;5032811;28;20403;-66
2024/03/20 10:08:38;;;;;;;19.20;8.18;;;;;;;16.92;74.36;101218.22;5050250;28;20041;-65
2024/03/20 10:11:08;;;;;;;24.35;9.25;;;;;;;17.11;75.22;101214.41;5038795;28;20041;-65
2024/03/20 10:13:34;;;;;;;20.00;8.73;;;;;;;17.27;72.87;101225.72;5032966;28;20129;-65
2024/03/20 10:16:14;;;;;;;22.92;9.20;;;;;;;17.53;73.71;101233.56;5037857;28;20021;-65
2024/03/20 10:18:42;;;;;;;37.97;8.30;;;;;;;17.70;71.75;101224.63;5043031;28;20396;-65
2024/03/20 10:21:09;;;;;;;22.55;9.57;;;;;;;17.84;69.88;101227.38;5031024;28;20052;-66
2024/03/20 10:23:42;;;;;;;24.15;9.60;;;;;;;17.97;70.57;101233.19;5029397;28;20111;-64
2024/03/20 10:26:12;;;;;;;24.92;9.57;;;;;;;18.09;70.30;101221.13;5052269;28;20033;-64
2024/03/20 10:28:38;;;;;;;32.33;9.75;;;;;;;18.27;70.56;101216.41;5027897;28;20032;-65
2024/03/20 10:31:06;;;;;;;22.73;8.85;;;;;;;18.38;69.24;101228.06;5040359;28;20536;-64
2024/03/20 10:33:33;;;;;;;26.27;8.73;;;;;;;18.42;68.40;101226.13;5037428;28;20398;-64
2024/03/20 10:35:59;;;;;;;24.92;9.80;;;;;;;18.48;68.85;101224.59;5044895;28;20037;-64
2024/03/20 10:38:27;;;;;;;28.33;9.45;;;;;;;18.52;68.19;101217.16;5037473;28;20091;-64
2024/03/20 10:40:54;;;;;;;22.73;10.35;;;;;;;18.57;67.18;101219.47;5054130;28;20036;-64
2024/03/20 10:43:22;;;;;;;24.17;8.90;;;;;;;18.60;66.15;101221.44;5047768;28;20034;-64
2024/03/20 10:45:48;;;;;;;26.02;9.15;;;;;;;18.66;66.45;101223.34;5031699;28;20453;-64
2024/03/20 10:48:18;;;;;;;27.83;9.95;;;;;;;18.70;67.64;101220.59;5052510;28;20037;-64
2024/03/20 10:50:47;;;;;;;24.45;10.52;;;;;;;18.60;65.90;101216.72;5046451;28;20050;-64
2024/03/20 10:53:14;;;;;;;30.17;10.48;;;;;;;18.83;62.29;101210.81;5032872;28;20036;-64
2024/03/20 10:55:44;;;;;;;23.05;9.48;;;;;;;18.69;63.68;101219.06;5033504;28;20037;-63
2024/03/20 10:58:18;;;;;;;25.77;9.13;;;;;;;18.68;65.55;101212.03;5020241;28;20021;-63
2024/03/20 11:00:50;;;;;;;23.60;8.70;;;;;;;18.79;67.54;101205.34;5033432;28;20037;-63
2024/03/20 11:03:41;;;;;;;25.65;10.15;;;;;;;18.84;64.80;101215.09;5033427;28;20071;-64
2024/03/20 11:06:30;;;;;;;22.00;8.73;;;;;;;19.00;63.79;101220.88;5032641;28;20044;-65
2024/03/20 11:09:00;;;;;;;22.83;9.02;;;;;;;18.99;63.82;101216.56;5045326;28;20033;-64
2024/03/20 11:11:26;;;;;;;24.23;9.68;;;;;;;19.12;64.26;101203.25;5037361;28;20083;-66
2024/03/20 11:13:53;;;;;;;23.00;9.35;;;;;;;19.17;63.51;101200.88;5017482;28;20025;-64
2024/03/20 11:16:22;;;;;;;25.80;8.90;;;;;;;19.31;62.15;101203.53;5048387;28;20043;-64